createdAt,value
2022-08-25T00:01:20.509Z,102155.84
2022-08-25T00:05:22.230Z,102152.56
2022-08-25T00:09:27.380Z,102166.25
2022-08-25T00:13:29.497Z,102169.09
2022-08-25T00:17:31.054Z,102162.34
2022-08-25T00:21:33.100Z,102173.22
2022-08-25T00:25:34.791Z,102162.47
2022-08-25T00:29:38.064Z,102164.31
2022-08-25T00:33:39.575Z,102162.50
2022-08-25T00:37:41.104Z,102149.72
2022-08-25T00:41:43.479Z,102143.41
2022-08-25T00:45:44.967Z,102149.50
2022-08-25T00:49:51.647Z,102150.66
2022-08-25T00:53:53.387Z,102152.66
2022-08-25T00:58:17.937Z,102143.69
2022-08-25T01:02:19.483Z,102152.41
2022-08-25T01:06:21.323Z,102141.63
2022-08-25T01:10:24.360Z,102143.28
2022-08-25T01:14:27.727Z,102145.56
2022-08-25T01:18:33.346Z,102150.66
2022-08-25T01:22:34.804Z,102143.13
2022-08-25T01:26:36.446Z,102140.50
2022-08-25T01:30:38.449Z,102139.44
2022-08-25T01:34:42.461Z,102138.31
2022-08-25T01:38:43.900Z,102140.44
2022-08-25T01:43:08.268Z,102135.97
2022-08-25T01:47:10.855Z,102135.25
2022-08-25T01:51:15.660Z,102135.06
2022-08-25T01:55:17.536Z,102132.28
2022-08-25T01:59:23.851Z,102137.44
2022-08-25T02:03:26.684Z,102150.47
2022-08-25T02:07:28.195Z,102142.50
2022-08-25T02:11:29.728Z,102147.44
2022-08-25T02:15:32.114Z,102142.50
2022-08-25T02:19:33.854Z,102134.69
2022-08-25T02:23:36.040Z,102127.47
2022-08-25T02:27:37.505Z,102126.44
2022-08-25T02:31:39.457Z,102131.44
2022-08-25T02:35:41.050Z,102125.84
2022-08-25T02:39:42.566Z,102135.41
2022-08-25T02:43:45.124Z,102136.03
2022-08-25T02:47:47.001Z,102135.91
2022-08-25T02:51:48.487Z,102128.75
2022-08-25T02:55:49.968Z,102126.34
2022-08-25T02:59:51.720Z,102115.31
2022-08-25T03:03:53.316Z,102122.69
2022-08-25T03:07:56.156Z,102124.75
2022-08-25T03:11:59.338Z,102123.66
2022-08-25T03:16:03.955Z,102122.75
2022-08-25T03:20:06.486Z,102118.09
2022-08-25T03:24:08.344Z,102115.84
2022-08-25T03:28:10.998Z,102098.31
2022-08-25T03:32:12.494Z,102103.41
2022-08-25T03:36:14.555Z,102102.91
2022-08-25T03:40:17.603Z,102102.09
2022-08-25T03:44:21.012Z,102104.56
2022-08-25T03:48:22.455Z,102100.41
2022-08-25T03:52:23.979Z,102098.13
2022-08-25T03:56:27.296Z,102098.00
2022-08-25T04:00:28.955Z,102095.81
2022-08-25T04:04:31.032Z,102095.03
2022-08-25T04:08:32.785Z,102097.00
2022-08-25T04:12:34.654Z,102093.28
2022-08-25T04:16:36.240Z,102083.72
2022-08-25T04:20:38.192Z,102088.97
2022-08-25T04:24:40.077Z,102099.44
2022-08-25T04:28:42.250Z,102095.63
2022-08-25T04:32:43.815Z,102090.69
2022-08-25T04:36:45.564Z,102089.75
2022-08-25T04:40:59.214Z,102095.50
2022-08-25T04:45:01.934Z,102089.97
2022-08-25T04:49:04.231Z,102090.09
2022-08-25T04:53:05.711Z,102097.09
2022-08-25T04:57:07.210Z,102092.22
2022-08-25T05:01:15.723Z,102097.06
2022-08-25T05:05:17.313Z,102090.34
2022-08-25T05:09:19.854Z,102102.38
2022-08-25T05:13:24.916Z,102090.22
2022-08-25T05:17:27.923Z,102099.84
2022-08-25T05:21:29.368Z,102100.50
2022-08-25T05:25:32.525Z,102098.69
2022-08-25T05:29:34.307Z,102101.28
2022-08-25T05:33:37.098Z,102100.28
2022-08-25T05:37:38.593Z,102109.31
2022-08-25T05:41:40.584Z,102104.94
2022-08-25T05:45:42.137Z,102108.72
2022-08-25T05:49:43.683Z,102112.16
2022-08-25T05:53:49.804Z,102106.75
2022-08-25T05:57:51.280Z,102108.97
2022-08-25T06:02:11.620Z,102105.00
2022-08-25T06:06:13.385Z,102104.69
2022-08-25T06:10:15.422Z,102110.34
2022-08-25T06:14:17.104Z,102099.34
2022-08-25T06:18:18.872Z,102092.53
2022-08-25T06:22:21.442Z,102094.75
2022-08-25T06:26:23.398Z,102092.09
2022-08-25T06:30:28.563Z,102092.53
2022-08-25T06:34:30.619Z,102091.09
2022-08-25T06:38:32.291Z,102091.47
2022-08-25T06:42:34.767Z,102090.22
2022-08-25T06:46:37.230Z,102091.00
2022-08-25T06:50:39.863Z,102096.88
2022-08-25T06:54:41.427Z,102093.19
2022-08-25T06:58:43.098Z,102091.47
2022-08-25T07:02:44.662Z,102088.03
2022-08-25T07:06:46.726Z,102093.22
2022-08-25T07:10:48.329Z,102098.56
2022-08-25T07:15:10.174Z,102086.06
2022-08-25T07:19:11.854Z,102093.88
2022-08-25T07:23:16.405Z,102091.63
2022-08-25T07:27:17.868Z,102103.72
2022-08-25T07:31:19.368Z,102100.47
2022-08-25T07:35:24.068Z,102091.50
2022-08-25T07:39:26.744Z,102092.66
2022-08-25T07:43:30.653Z,102099.13
2022-08-25T07:47:32.264Z,102097.91
2022-08-25T07:51:34.604Z,102092.91
2022-08-25T07:55:38.879Z,102095.03
2022-08-25T07:59:42.060Z,102087.75
2022-08-25T08:03:50.953Z,102090.81
2022-08-25T08:07:55.091Z,102096.38
2022-08-25T08:11:57.609Z,102091.28
2022-08-25T08:15:59.114Z,102090.63
2022-08-25T08:20:01.043Z,102094.28
2022-08-25T08:24:10.740Z,102090.06
2022-08-25T08:28:16.720Z,102083.94
2022-08-25T08:32:18.517Z,102079.72
2022-08-25T08:36:21.473Z,102073.25
2022-08-25T08:40:29.017Z,102063.19
2022-08-25T08:44:46.036Z,102064.13
2022-08-25T08:49:06.145Z,102068.84
2022-08-25T08:53:19.719Z,102060.88
2022-08-25T08:57:28.100Z,102065.88
2022-08-25T09:01:35.490Z,102061.28
2022-08-25T09:05:48.490Z,102065.19
2022-08-25T09:09:52.350Z,102067.41
2022-08-25T09:14:15.543Z,102076.53
2022-08-25T09:18:26.557Z,102064.94
2022-08-25T09:22:52.098Z,102060.72
2022-08-25T09:27:18.790Z,102057.94
2022-08-25T09:31:31.777Z,102051.81
2022-08-25T09:35:37.002Z,102047.56
2022-08-25T09:39:39.124Z,102042.13
2022-08-25T09:43:43.171Z,102040.97
2022-08-25T09:47:45.861Z,102027.63
2022-08-25T09:51:48.337Z,102019.72
2022-08-25T09:56:04.563Z,102024.84
2022-08-25T10:00:16.226Z,102021.91
2022-08-25T10:04:40.117Z,102016.63
2022-08-25T10:08:44.866Z,102006.78
2022-08-25T10:12:51.363Z,102003.91
2022-08-25T10:17:12.096Z,101988.50
2022-08-25T10:21:18.909Z,101996.66
2022-08-25T10:25:29.926Z,101975.72
2022-08-25T10:29:49.310Z,101979.94
2022-08-25T10:34:11.869Z,101966.34
2022-08-25T10:38:37.527Z,101961.88
2022-08-25T10:43:15.911Z,101958.53
2022-08-25T10:47:35.809Z,101954.69
2022-08-25T10:52:02.030Z,101940.22
2022-08-25T10:56:24.890Z,101943.44
2022-08-25T11:00:37.447Z,101938.81
2022-08-25T11:04:48.816Z,101935.72
2022-08-25T11:08:56.026Z,101929.47
2022-08-25T11:13:01.510Z,101928.56
2022-08-25T11:17:20.308Z,101931.72
2022-08-25T11:21:28.531Z,101926.34
2022-08-25T11:25:37.272Z,101926.00
2022-08-25T11:29:39.689Z,101920.84
2022-08-25T11:33:41.422Z,101923.78
2022-08-25T11:38:05.888Z,101933.34
2022-08-25T11:42:38.438Z,101921.09
2022-08-25T11:46:47.647Z,101922.84
2022-08-25T11:51:09.706Z,101912.22
2022-08-25T11:55:40.371Z,101908.22
2022-08-25T11:59:57.192Z,101918.16
2022-08-25T12:04:44.151Z,101911.81
2022-08-25T12:08:59.747Z,101915.50
2022-08-25T12:13:08.040Z,101904.91
2022-08-25T12:17:24.389Z,101899.56
2022-08-25T12:21:32.430Z,101893.97
2022-08-25T12:25:39.235Z,101886.94
2022-08-25T12:29:50.539Z,101884.78
2022-08-25T12:34:06.377Z,101876.72
2022-08-25T12:38:13.633Z,101875.81
2022-08-25T12:42:37.884Z,101873.19
2022-08-25T12:46:43.276Z,101872.72
2022-08-25T12:50:50.232Z,101868.41
2022-08-25T12:55:00.360Z,101860.81
2022-08-25T12:59:01.817Z,101854.91
2022-08-25T13:03:45.471Z,101854.34
2022-08-25T13:07:55.994Z,101859.25
2022-08-25T13:12:16.272Z,101855.19
2022-08-25T13:16:22.234Z,101852.00
2022-08-25T13:20:29.105Z,101833.38
2022-08-25T13:24:40.440Z,101844.91
2022-08-25T13:28:50.497Z,101839.66
2022-08-25T13:32:52.135Z,101827.88
2022-08-25T13:37:12.764Z,101837.13
2022-08-25T13:41:21.307Z,101825.91
2022-08-25T13:45:34.658Z,101819.56
2022-08-25T13:49:46.582Z,101818.28
2022-08-25T13:54:02.745Z,101813.38
2022-08-25T13:58:14.150Z,101821.50
2022-08-25T14:02:41.970Z,101812.31
2022-08-25T14:06:46.691Z,101806.56
2022-08-25T14:10:48.159Z,101805.41
2022-08-25T14:14:58.925Z,101804.31
2022-08-25T14:19:04.451Z,101791.81
2022-08-25T14:23:19.101Z,101789.81
2022-08-25T14:27:21.724Z,101793.09
2022-08-25T14:31:29.525Z,101785.09
2022-08-25T14:35:31.662Z,101784.91
2022-08-25T14:39:33.143Z,101786.19
2022-08-25T14:43:34.783Z,101786.44
2022-08-25T14:47:36.536Z,101767.88
2022-08-25T14:51:43.372Z,101761.69
2022-08-25T14:55:45.014Z,101759.41
2022-08-25T14:59:46.617Z,101766.44
2022-08-25T15:03:52.289Z,101756.88
2022-08-25T15:08:13.540Z,101756.44
2022-08-25T15:12:26.134Z,101749.44
2022-08-25T15:16:42.473Z,101737.19
2022-08-25T15:20:44.277Z,101741.78
2022-08-25T15:24:45.788Z,101743.94
2022-08-25T15:28:50.083Z,101744.38
2022-08-25T15:32:51.963Z,101737.81
2022-08-25T15:37:00.360Z,101726.91
2022-08-25T15:41:02.174Z,101729.84
2022-08-25T15:45:05.501Z,101732.78
2022-08-25T15:49:07.908Z,101731.25
2022-08-25T15:53:10.688Z,101720.75
2022-08-25T15:57:16.844Z,101714.78
2022-08-25T16:01:30.632Z,101710.66
2022-08-25T16:05:32.219Z,101720.34
2022-08-25T16:09:35.075Z,101700.81
2022-08-25T16:13:36.526Z,101705.06
2022-08-25T16:17:37.997Z,101701.56
2022-08-25T16:21:47.537Z,101693.97
2022-08-25T16:25:49.583Z,101698.63
2022-08-25T16:29:53.441Z,101703.47
2022-08-25T16:33:58.165Z,101691.94
2022-08-25T16:37:59.989Z,101691.31
2022-08-25T16:42:05.604Z,101685.19
2022-08-25T16:46:10.162Z,101689.97
2022-08-25T16:50:13.145Z,101695.34
2022-08-25T16:54:33.418Z,101693.72
2022-08-25T16:58:35.293Z,101688.47
2022-08-25T17:02:38.394Z,101697.41
2022-08-25T17:06:49.395Z,101694.47
2022-08-25T17:10:53.498Z,101692.44
2022-08-25T17:14:55.037Z,101698.53
2022-08-25T17:18:58.721Z,101704.94
2022-08-25T17:23:00.960Z,101707.56
2022-08-25T17:27:02.407Z,101704.63
2022-08-25T17:31:04.425Z,101703.66
2022-08-25T17:35:06.716Z,101704.22
2022-08-25T17:39:10.961Z,101698.00
2022-08-25T17:43:12.456Z,101704.25
2022-08-25T17:47:14.026Z,101705.00
2022-08-25T17:51:15.830Z,101709.59
2022-08-25T17:55:21.613Z,101697.34
2022-08-25T17:59:23.081Z,101712.63
2022-08-25T18:03:25.494Z,101700.75
2022-08-25T18:07:27.139Z,101704.56
2022-08-25T18:11:28.929Z,101710.50
2022-08-25T18:15:33.872Z,101717.00
2022-08-25T18:19:35.675Z,101711.88
2022-08-25T18:23:37.246Z,101717.22
2022-08-25T18:27:40.106Z,101727.19
2022-08-25T18:31:42.396Z,101723.19
2022-08-25T18:35:44.660Z,101727.47
2022-08-25T18:40:04.871Z,101723.19
2022-08-25T18:44:08.880Z,101720.91
2022-08-25T18:48:12.265Z,101725.34
2022-08-25T18:52:13.867Z,101726.47
2022-08-25T18:56:15.689Z,101728.03
2022-08-25T19:00:20.512Z,101723.44
2022-08-25T19:04:28.380Z,101730.88
2022-08-25T19:08:33.218Z,101726.31
2022-08-25T19:12:36.704Z,101716.69
2022-08-25T19:16:41.327Z,101716.16
2022-08-25T19:20:43.047Z,101717.66
2022-08-25T19:24:45.557Z,101717.47
2022-08-25T19:28:48.956Z,101714.38
2022-08-25T19:32:51.785Z,101713.28
2022-08-25T19:36:54.799Z,101716.22
2022-08-25T19:40:56.722Z,101717.31
2022-08-25T19:44:59.517Z,101709.25
2022-08-25T19:49:08.430Z,101707.50
2022-08-25T19:53:10.315Z,101708.88
2022-08-25T19:57:28.486Z,101711.16
2022-08-25T20:01:37.099Z,101708.47
2022-08-25T20:05:42.084Z,101706.50
2022-08-25T20:09:45.197Z,101716.47
2022-08-25T20:13:47.012Z,101722.16
2022-08-25T20:17:50.951Z,101720.81
2022-08-25T20:21:58.914Z,101723.22
2022-08-25T20:26:00.384Z,101721.91
2022-08-25T20:30:05.415Z,101718.97
2022-08-25T20:34:07.132Z,101718.69
2022-08-25T20:38:08.716Z,101725.34
2022-08-25T20:42:10.451Z,101706.34
2022-08-25T20:46:12.171Z,101716.78
2022-08-25T20:50:13.726Z,101710.94
2022-08-25T20:54:16.876Z,101713.72
2022-08-25T20:58:18.397Z,101712.59
2022-08-25T21:02:20.799Z,101713.00
2022-08-25T21:06:22.309Z,101712.88
2022-08-25T21:10:24.061Z,101712.53
2022-08-25T21:14:26.335Z,101698.38
2022-08-25T21:18:31.533Z,101694.63
2022-08-25T21:22:35.293Z,101686.91
2022-08-25T21:26:37.296Z,101683.91
2022-08-25T21:30:49.149Z,101671.84
2022-08-25T21:34:54.444Z,101675.94
2022-08-25T21:38:58.527Z,101669.94
2022-08-25T21:43:01.883Z,101667.47
2022-08-25T21:47:04.099Z,101667.63
2022-08-25T21:51:09.538Z,101663.59
2022-08-25T21:55:16.093Z,101665.56
2022-08-25T21:59:21.938Z,101663.66
2022-08-25T22:03:23.403Z,101661.00
2022-08-25T22:07:25.032Z,101669.16
2022-08-25T22:11:28.156Z,101661.16
2022-08-25T22:15:35.344Z,101660.47
2022-08-25T22:19:36.813Z,101654.47
2022-08-25T22:23:44.112Z,101662.81
2022-08-25T22:27:46.242Z,101645.72
2022-08-25T22:31:51.101Z,101651.47
2022-08-25T22:35:56.000Z,101640.00
2022-08-25T22:40:02.399Z,101650.34
2022-08-25T22:44:05.932Z,101640.22
2022-08-25T22:48:07.568Z,101639.72
2022-08-25T22:52:11.424Z,101638.47
2022-08-25T22:56:17.237Z,101635.91
2022-08-25T23:00:19.282Z,101637.47
2022-08-25T23:04:21.244Z,101638.56
2022-08-25T23:08:39.002Z,101636.31
2022-08-25T23:12:43.903Z,101638.44
2022-08-25T23:16:45.785Z,101640.03
2022-08-25T23:21:05.734Z,101631.81
2022-08-25T23:25:07.538Z,101630.06
2022-08-25T23:29:17.795Z,101618.31
2022-08-25T23:33:21.427Z,101619.53
2022-08-25T23:37:22.911Z,101616.97
2022-08-25T23:41:25.508Z,101609.25
2022-08-25T23:45:27.023Z,101603.06
2022-08-25T23:49:28.826Z,101607.09
2022-08-25T23:53:31.604Z,101604.06
2022-08-25T23:57:33.048Z,101602.69
